createdAt,value
2022-09-26T00:00:09.698Z,0.10
2022-09-26T00:01:09.703Z,0.20
2022-09-26T00:02:09.766Z,0.10
2022-09-26T00:03:09.650Z,0.20
2022-09-26T00:04:09.647Z,0.10
2022-09-26T00:05:09.625Z,0.10
2022-09-26T00:06:09.612Z,0.10
2022-09-26T00:08:09.587Z,0.20
2022-09-26T00:09:09.639Z,0.10
2022-09-26T00:10:09.562Z,0.20
2022-09-26T00:11:09.548Z,0.20
2022-09-26T00:12:09.535Z,0.20
2022-09-26T00:13:09.546Z,0.20
2022-09-26T00:14:09.509Z,0.20
2022-09-26T00:15:09.495Z,0.10
2022-09-26T00:16:09.484Z,0.20
2022-09-26T00:17:09.537Z,0.10
2022-09-26T00:19:09.442Z,0.10
2022-09-26T00:20:09.433Z,0.20
2022-09-26T00:21:09.419Z,0.10
2022-09-26T00:22:09.408Z,0.10
2022-09-26T00:23:09.392Z,0.10
2022-09-26T00:24:09.382Z,0.20
2022-09-26T00:25:09.367Z,0.10
2022-09-26T00:26:09.360Z,0.20
2022-09-26T00:27:09.340Z,0.20
2022-09-26T00:28:09.334Z,0.20
2022-09-26T00:30:09.305Z,0.20
2022-09-26T00:31:09.453Z,0.20
2022-09-26T00:32:09.278Z,0.20
2022-09-26T00:33:09.264Z,0.10
2022-09-26T00:34:09.254Z,0.20
2022-09-26T00:35:09.238Z,0.10
2022-09-26T00:36:09.231Z,0.20
2022-09-26T00:37:09.213Z,0.20
2022-09-26T00:38:09.201Z,0.20
2022-09-26T00:39:09.221Z,0.20
2022-09-26T00:41:09.161Z,0.20
2022-09-26T00:42:09.149Z,0.10
2022-09-26T00:43:09.137Z,0.20
2022-09-26T00:44:09.125Z,0.20
2022-09-26T00:45:09.132Z,0.20
2022-09-26T00:46:09.142Z,0.20
2022-09-26T00:47:09.084Z,0.20
2022-09-26T00:48:09.074Z,0.20
2022-09-26T00:49:09.139Z,0.20
2022-09-26T00:50:09.049Z,0.20
2022-09-26T00:52:09.026Z,0.10
2022-09-26T00:53:09.009Z,0.20
2022-09-26T00:54:08.995Z,0.10
2022-09-26T00:55:08.980Z,0.20
2022-09-26T00:56:08.969Z,0.20
2022-09-26T00:57:08.958Z,0.20
2022-09-26T00:58:08.943Z,0.10
2022-09-26T00:59:08.984Z,0.20
2022-09-26T01:00:08.918Z,0.20
2022-09-26T01:01:09.032Z,0.20
2022-09-26T01:03:08.876Z,0.20
2022-09-26T01:04:08.865Z,0.20
2022-09-26T01:05:08.850Z,0.20
2022-09-26T01:06:08.842Z,0.20
2022-09-26T01:07:08.826Z,0.10
2022-09-26T01:08:08.815Z,0.20
2022-09-26T01:09:09.102Z,0.20
2022-09-26T01:10:08.790Z,0.20
2022-09-26T01:11:10.089Z,0.20
2022-09-26T01:12:08.766Z,0.20
2022-09-26T01:14:08.737Z,0.20
2022-09-26T01:15:08.722Z,0.10
2022-09-26T01:16:08.725Z,0.20
2022-09-26T01:17:08.788Z,0.20
2022-09-26T01:18:08.685Z,0.20
2022-09-26T01:19:08.756Z,0.20
2022-09-26T01:20:08.664Z,0.30
2022-09-26T01:21:08.643Z,0.20
2022-09-26T01:22:08.634Z,0.20
2022-09-26T01:23:08.619Z,0.20
2022-09-26T01:25:08.592Z,0.20
2022-09-26T01:26:08.583Z,0.20
2022-09-26T01:27:08.565Z,0.20
2022-09-26T01:28:08.556Z,0.20
2022-09-26T01:29:08.551Z,0.30
2022-09-26T01:30:08.543Z,0.20
2022-09-26T01:31:08.607Z,0.30
2022-09-26T01:32:08.503Z,0.20
2022-09-26T01:33:08.512Z,0.30
2022-09-26T01:34:08.480Z,0.30
2022-09-26T01:36:08.460Z,0.20
2022-09-26T01:37:08.436Z,0.20
2022-09-26T01:38:08.425Z,0.20
2022-09-26T01:39:08.502Z,0.30
2022-09-26T01:40:08.399Z,0.20
2022-09-26T01:41:08.386Z,0.20
2022-09-26T01:42:08.375Z,0.20
2022-09-26T01:43:08.377Z,0.20
2022-09-26T01:44:08.349Z,0.20
2022-09-26T01:45:08.333Z,0.30
2022-09-26T01:47:08.310Z,0.20
2022-09-26T01:48:08.297Z,0.20
2022-09-26T01:49:08.393Z,0.20
2022-09-26T01:50:08.275Z,0.20
2022-09-26T01:51:08.256Z,0.20
2022-09-26T01:52:08.245Z,0.20
2022-09-26T01:53:08.230Z,0.20
2022-09-26T01:54:08.220Z,0.20
2022-09-26T01:55:08.209Z,0.20
2022-09-26T01:56:08.202Z,0.20
2022-09-26T01:58:08.169Z,0.20
2022-09-26T01:59:08.196Z,0.20
2022-09-26T02:00:08.141Z,0.30
2022-09-26T02:01:08.190Z,0.20
2022-09-26T02:02:08.212Z,0.20
2022-09-26T02:03:08.102Z,0.20
2022-09-26T02:04:08.091Z,0.20
2022-09-26T02:05:08.103Z,0.20
2022-09-26T02:06:08.065Z,0.20
2022-09-26T02:07:08.050Z,0.20
2022-09-26T02:09:08.119Z,0.10
2022-09-26T02:10:08.014Z,0.20
2022-09-26T02:11:07.998Z,0.20
2022-09-26T02:12:07.987Z,0.20
2022-09-26T02:13:07.972Z,0.10
2022-09-26T02:14:07.960Z,0.20
2022-09-26T02:15:07.948Z,0.10
2022-09-26T02:16:07.973Z,0.20
2022-09-26T02:17:07.920Z,0.20
2022-09-26T02:18:07.909Z,0.20
2022-09-26T02:20:07.883Z,0.10
2022-09-26T02:21:07.972Z,0.20
2022-09-26T02:22:08.879Z,0.10
2022-09-26T02:23:07.857Z,0.20
2022-09-26T02:24:07.830Z,0.10
2022-09-26T02:25:07.815Z,0.20
2022-09-26T02:26:07.804Z,0.10
2022-09-26T02:27:07.794Z,0.20
2022-09-26T02:28:07.777Z,0.10
2022-09-26T02:29:07.766Z,0.20
2022-09-26T02:31:07.736Z,0.10
2022-09-26T02:32:07.757Z,0.20
2022-09-26T02:33:07.711Z,0.10
2022-09-26T02:34:07.701Z,0.20
2022-09-26T02:35:07.686Z,0.10
2022-09-26T02:36:07.674Z,0.20
2022-09-26T02:37:07.684Z,0.10
2022-09-26T02:38:07.647Z,0.10
2022-09-26T02:39:07.632Z,0.10
2022-09-26T02:40:07.622Z,0.10
2022-09-26T02:42:07.596Z,0.20
2022-09-26T02:43:07.580Z,0.10
2022-09-26T02:44:07.570Z,0.20
2022-09-26T02:45:07.556Z,0.10
2022-09-26T02:46:07.650Z,0.10
2022-09-26T02:47:07.530Z,0.10
2022-09-26T02:48:07.518Z,0.20
2022-09-26T02:49:07.504Z,0.10
2022-09-26T02:50:07.493Z,0.20
2022-09-26T02:51:07.477Z,0.20
2022-09-26T02:53:07.474Z,0.20
2022-09-26T02:54:07.440Z,0.10
2022-09-26T02:55:07.424Z,0.20
2022-09-26T02:56:07.417Z,0.10
2022-09-26T02:57:07.399Z,0.20
2022-09-26T02:58:07.393Z,0.20
2022-09-26T02:59:07.372Z,0.20
2022-09-26T03:00:07.361Z,0.20
2022-09-26T03:01:07.401Z,0.20
2022-09-26T03:02:07.340Z,0.20
2022-09-26T03:04:07.309Z,0.20
2022-09-26T03:05:07.385Z,0.10
2022-09-26T03:06:07.282Z,0.20
2022-09-26T03:07:07.269Z,0.20
2022-09-26T03:08:07.259Z,0.20
2022-09-26T03:09:07.269Z,0.10
2022-09-26T03:10:07.231Z,0.10
2022-09-26T03:11:07.217Z,0.10
2022-09-26T03:12:07.204Z,0.10
2022-09-26T03:13:07.191Z,0.20
2022-09-26T03:15:07.164Z,0.20
2022-09-26T03:16:07.214Z,0.10
2022-09-26T03:17:07.138Z,0.10
2022-09-26T03:18:07.126Z,0.10
2022-09-26T03:19:07.111Z,0.20
2022-09-26T03:20:07.101Z,0.10
2022-09-26T03:21:07.087Z,0.10
2022-09-26T03:22:07.075Z,0.10
2022-09-26T03:23:07.060Z,0.10
2022-09-26T03:24:07.049Z,0.10
2022-09-26T03:26:07.022Z,0.20
2022-09-26T03:27:07.008Z,0.10
2022-09-26T03:28:06.996Z,0.20
2022-09-26T03:29:06.983Z,0.10
2022-09-26T03:30:06.971Z,0.20
2022-09-26T03:31:06.955Z,0.20
2022-09-26T03:32:07.054Z,0.20
2022-09-26T03:33:06.933Z,0.20
2022-09-26T03:34:06.920Z,0.20
2022-09-26T03:35:06.903Z,0.20
2022-09-26T03:37:06.882Z,0.20
2022-09-26T03:38:10.122Z,0.10
2022-09-26T03:39:07.030Z,0.20
2022-09-26T03:40:06.841Z,0.10
2022-09-26T03:41:06.850Z,0.20
2022-09-26T03:42:06.813Z,0.20
2022-09-26T03:43:06.800Z,0.20
2022-09-26T03:44:06.788Z,0.10
2022-09-26T03:45:06.772Z,0.10
2022-09-26T03:46:06.890Z,0.20
2022-09-26T03:48:06.734Z,0.20
2022-09-26T03:49:06.833Z,0.10
2022-09-26T03:50:06.713Z,0.20
2022-09-26T03:51:06.693Z,0.10
2022-09-26T03:52:06.682Z,0.20
2022-09-26T03:53:06.669Z,0.20
2022-09-26T03:54:06.656Z,0.10
2022-09-26T03:55:06.646Z,0.20
2022-09-26T03:56:06.629Z,0.10
2022-09-26T03:57:06.642Z,0.20
2022-09-26T03:59:06.645Z,0.20
2022-09-26T04:00:06.584Z,0.10
2022-09-26T04:01:06.630Z,0.20
2022-09-26T04:02:06.632Z,0.20
2022-09-26T04:03:06.539Z,0.10
2022-09-26T04:04:06.523Z,0.20
2022-09-26T04:05:06.514Z,0.20
2022-09-26T04:06:06.500Z,0.20
2022-09-26T04:07:06.487Z,0.20
2022-09-26T04:08:06.471Z,0.30
2022-09-26T04:10:06.446Z,0.20
2022-09-26T04:11:06.435Z,0.20
2022-09-26T04:12:06.419Z,0.20
2022-09-26T04:13:06.432Z,0.20
2022-09-26T04:14:06.393Z,0.20
2022-09-26T04:15:06.382Z,0.30
2022-09-26T04:16:06.415Z,0.20
2022-09-26T04:17:06.356Z,0.30
2022-09-26T04:18:06.341Z,0.20
2022-09-26T04:19:06.407Z,0.20
2022-09-26T04:21:09.911Z,0.30
2022-09-26T04:22:06.289Z,0.30
2022-09-26T04:23:06.278Z,0.20
2022-09-26T04:24:06.263Z,0.30
2022-09-26T04:25:06.251Z,0.20
2022-09-26T04:26:06.237Z,0.30
2022-09-26T04:27:06.225Z,0.20
2022-09-26T04:28:06.210Z,0.20
2022-09-26T04:29:06.294Z,0.30
2022-09-26T04:30:06.183Z,0.20
2022-09-26T04:32:06.233Z,0.20
2022-09-26T04:33:06.147Z,0.20
2022-09-26T04:34:06.132Z,0.20
2022-09-26T04:35:06.121Z,0.30
2022-09-26T04:36:06.107Z,0.10
2022-09-26T04:37:06.095Z,0.30
2022-09-26T04:38:06.078Z,0.20
2022-09-26T04:39:06.117Z,0.20
2022-09-26T04:40:06.053Z,0.20
2022-09-26T04:41:06.114Z,0.20
2022-09-26T04:43:06.018Z,0.10
2022-09-26T04:44:06.002Z,0.20
2022-09-26T04:45:06.013Z,0.10
2022-09-26T04:46:06.098Z,0.20
2022-09-26T04:47:05.964Z,0.10
2022-09-26T04:48:05.951Z,0.20
2022-09-26T04:49:05.974Z,0.20
2022-09-26T04:50:05.922Z,0.20
2022-09-26T04:51:05.913Z,0.20
2022-09-26T04:52:05.897Z,0.20
2022-09-26T04:54:05.871Z,0.20
2022-09-26T04:55:05.860Z,0.20
2022-09-26T04:56:05.844Z,0.20
2022-09-26T04:57:05.834Z,0.20
2022-09-26T04:58:05.820Z,0.20
2022-09-26T04:59:05.806Z,0.20
2022-09-26T05:00:05.793Z,0.20
2022-09-26T05:01:05.865Z,0.20
2022-09-26T05:02:05.833Z,0.30
2022-09-26T05:03:05.755Z,0.20
2022-09-26T05:05:05.732Z,0.20
2022-09-26T05:06:05.715Z,0.20
2022-09-26T05:07:05.703Z,0.10
2022-09-26T05:08:05.687Z,0.20
2022-09-26T05:09:05.750Z,0.10
2022-09-26T05:10:05.662Z,0.10
2022-09-26T05:11:05.651Z,18.39
2022-09-26T05:12:05.636Z,1.20
2022-09-26T05:13:05.624Z,0.20
2022-09-26T05:14:05.609Z,0.20
2022-09-26T05:16:05.686Z,0.20
2022-09-26T05:17:05.603Z,0.20
2022-09-26T05:18:05.557Z,0.20
2022-09-26T05:19:05.702Z,0.20
2022-09-26T05:20:05.531Z,0.20
2022-09-26T05:21:05.526Z,0.20
2022-09-26T05:22:05.505Z,52.50
2022-09-26T05:23:05.494Z,0.20
2022-09-26T05:24:05.489Z,0.20
2022-09-26T05:25:05.468Z,0.20
2022-09-26T05:27:05.447Z,0.20
2022-09-26T05:28:05.427Z,0.30
2022-09-26T05:29:08.945Z,0.20
2022-09-26T05:30:05.401Z,0.20
2022-09-26T05:31:05.391Z,0.20
2022-09-26T05:32:05.481Z,0.20
2022-09-26T05:33:05.391Z,55.40
2022-09-26T05:34:05.349Z,55.70
2022-09-26T05:35:05.343Z,53.79
2022-09-26T05:36:05.324Z,51.79
2022-09-26T05:38:05.296Z,51.79
2022-09-26T05:39:05.290Z,51.00
2022-09-26T05:40:05.272Z,49.00
2022-09-26T05:41:05.325Z,49.59
2022-09-26T05:42:05.246Z,49.29
2022-09-26T05:43:05.237Z,48.90
2022-09-26T05:44:05.220Z,51.40
2022-09-26T05:45:05.211Z,52.00
2022-09-26T05:46:05.195Z,51.70
2022-09-26T05:47:05.287Z,50.20
2022-09-26T05:49:05.246Z,49.40
2022-09-26T05:50:05.142Z,49.09
2022-09-26T05:51:05.130Z,48.70
2022-09-26T05:53:05.105Z,47.00
2022-09-26T05:54:05.094Z,46.40
2022-09-26T05:55:05.080Z,45.50
2022-09-26T05:56:05.069Z,44.09
2022-09-26T05:57:05.054Z,44.20
2022-09-26T05:58:05.036Z,44.50
2022-09-26T06:00:05.027Z,45.40
2022-09-26T06:01:05.073Z,45.79
2022-09-26T06:02:05.102Z,45.20
2022-09-26T06:03:04.975Z,45.20
2022-09-26T06:04:04.960Z,44.40
2022-09-26T06:05:04.991Z,44.90
2022-09-26T06:06:04.934Z,43.29
2022-09-26T06:07:04.922Z,42.20
2022-09-26T06:08:04.908Z,42.59
2022-09-26T06:09:04.897Z,42.40
2022-09-26T06:11:04.869Z,42.09
2022-09-26T06:12:04.854Z,41.70
2022-09-26T06:13:04.844Z,41.50
2022-09-26T06:14:04.828Z,42.59
2022-09-26T06:15:04.818Z,44.70
2022-09-26T06:16:04.867Z,43.79
2022-09-26T06:17:04.791Z,45.90
2022-09-26T06:18:04.784Z,45.50
2022-09-26T06:19:04.771Z,50.00
2022-09-26T06:20:04.755Z,53.59
2022-09-26T06:22:04.725Z,53.70
2022-09-26T06:23:04.711Z,54.50
2022-09-26T06:24:04.698Z,54.50
2022-09-26T06:25:04.686Z,51.40
2022-09-26T06:26:04.676Z,53.40
2022-09-26T06:27:04.659Z,57.29
2022-09-26T06:28:04.644Z,56.50
2022-09-26T06:29:04.636Z,55.79
2022-09-26T06:30:04.619Z,57.20
2022-09-26T06:31:04.606Z,57.79
2022-09-26T06:32:04.655Z,62.40
2022-09-26T06:33:04.581Z,68.80
2022-09-26T06:34:04.565Z,70.80
2022-09-26T06:35:04.555Z,75.59
2022-09-26T06:36:04.617Z,72.50
2022-09-26T06:37:04.554Z,69.69
2022-09-26T06:38:04.518Z,68.90
2022-09-26T06:39:04.504Z,66.09
2022-09-26T06:40:04.488Z,67.90
2022-09-26T06:41:04.538Z,69.19
2022-09-26T06:43:04.449Z,70.00
2022-09-26T06:44:04.438Z,73.19
2022-09-26T06:45:04.422Z,66.69
2022-09-26T06:46:04.407Z,61.09
2022-09-26T06:47:04.496Z,57.29
2022-09-26T06:48:04.382Z,59.79
2022-09-26T06:49:04.371Z,59.79
2022-09-26T06:50:04.359Z,59.40
2022-09-26T06:51:04.351Z,55.70
2022-09-26T06:52:04.329Z,58.00
2022-09-26T06:54:04.302Z,54.40
2022-09-26T06:55:04.291Z,55.50
2022-09-26T06:56:04.277Z,54.09
2022-09-26T06:57:04.266Z,54.50
2022-09-26T06:58:04.251Z,53.20
2022-09-26T06:59:04.240Z,48.50
2022-09-26T07:00:04.226Z,47.79
2022-09-26T07:01:04.357Z,45.40
2022-09-26T07:02:04.365Z,45.40
2022-09-26T07:03:04.186Z,39.70
2022-09-26T07:05:04.192Z,33.00
2022-09-26T07:06:04.146Z,41.50
2022-09-26T07:07:04.135Z,36.00
2022-09-26T07:08:04.121Z,33.90
2022-09-26T07:09:08.588Z,32.00
2022-09-26T07:10:06.095Z,33.90
2022-09-26T07:11:30.416Z,37.09
2022-09-26T07:12:17.472Z,38.79
2022-09-26T07:13:06.056Z,33.50
2022-09-26T07:14:04.042Z,33.29
2022-09-26T07:16:04.063Z,34.20
2022-09-26T07:17:04.021Z,33.90
2022-09-26T07:18:03.990Z,39.00
2022-09-26T07:19:03.983Z,38.90
2022-09-26T07:20:03.963Z,34.90
2022-09-26T07:21:03.954Z,36.40
2022-09-26T07:22:03.952Z,41.50
2022-09-26T07:23:03.928Z,37.79
2022-09-26T07:24:03.912Z,37.29
2022-09-26T07:25:03.924Z,38.70
2022-09-26T07:27:03.876Z,35.20
2022-09-26T07:28:03.861Z,34.50
2022-09-26T07:29:03.849Z,35.90
2022-09-26T07:30:03.833Z,34.40
2022-09-26T07:31:03.897Z,35.90
2022-09-26T07:32:03.807Z,38.59
2022-09-26T07:33:03.956Z,36.59
2022-09-26T07:34:03.782Z,34.90
2022-09-26T07:35:03.771Z,38.59
2022-09-26T07:36:05.693Z,35.59
2022-09-26T07:38:03.730Z,45.20
2022-09-26T07:39:03.722Z,40.00
2022-09-26T07:40:03.705Z,42.09
2022-09-26T07:41:03.804Z,44.00
2022-09-26T07:42:03.678Z,44.20
2022-09-26T07:43:19.198Z,42.29
2022-09-26T07:45:32.172Z,42.09
2022-09-26T07:46:05.632Z,43.70
2022-09-26T07:47:03.682Z,43.40
2022-09-26T07:49:03.588Z,45.00
2022-09-26T07:50:03.578Z,44.40
2022-09-26T07:51:09.029Z,46.70
2022-09-26T07:52:03.550Z,49.50
2022-09-26T07:53:03.557Z,52.09
2022-09-26T07:54:03.523Z,53.59
2022-09-26T07:55:03.512Z,54.70
2022-09-26T07:56:03.496Z,52.29
2022-09-26T07:57:04.175Z,53.00
2022-09-26T07:58:03.470Z,56.40
2022-09-26T08:00:03.445Z,61.20
2022-09-26T08:01:03.432Z,57.29
2022-09-26T08:02:03.605Z,52.90
2022-09-26T08:03:03.475Z,52.59
2022-09-26T08:04:03.388Z,49.20
2022-09-26T08:05:03.385Z,48.59
2022-09-26T08:06:03.362Z,48.50
2022-09-26T08:07:03.354Z,48.00
2022-09-26T08:08:03.335Z,47.40
2022-09-26T08:09:03.326Z,54.00
2022-09-26T08:11:04.419Z,59.40
2022-09-26T08:12:03.289Z,58.20
2022-09-26T08:13:03.337Z,57.59
2022-09-26T08:14:03.260Z,58.70
2022-09-26T08:15:03.247Z,54.79
2022-09-26T08:16:03.295Z,53.79
2022-09-26T08:17:03.223Z,51.09
2022-09-26T08:18:03.211Z,50.79
2022-09-26T08:19:03.196Z,51.50
2022-09-26T08:20:03.185Z,52.00
2022-09-26T08:22:03.183Z,53.09
2022-09-26T08:23:03.145Z,53.70
2022-09-26T08:24:03.132Z,55.90
2022-09-26T08:25:03.123Z,55.20
2022-09-26T08:26:03.107Z,52.70
2022-09-26T08:27:03.098Z,50.79
2022-09-26T08:28:03.083Z,54.79
2022-09-26T08:29:03.091Z,56.00
2022-09-26T08:30:03.058Z,56.59
2022-09-26T08:31:03.147Z,58.40
2022-09-26T08:33:03.018Z,54.59
2022-09-26T08:34:03.006Z,52.29
2022-09-26T08:35:03.002Z,44.90
2022-09-26T08:36:02.983Z,48.20
2022-09-26T08:37:02.969Z,52.00
2022-09-26T08:38:02.958Z,53.70
2022-09-26T08:39:02.942Z,50.79
2022-09-26T08:40:02.932Z,53.00
2022-09-26T08:41:03.039Z,49.50
2022-09-26T08:42:02.905Z,52.40
2022-09-26T08:44:02.894Z,48.40
2022-09-26T08:45:02.896Z,51.40
2022-09-26T08:46:02.859Z,43.29
2022-09-26T08:47:02.978Z,39.20
2022-09-26T08:48:02.829Z,41.20
2022-09-26T08:49:02.815Z,45.59
2022-09-26T08:50:02.805Z,49.09
2022-09-26T08:51:02.789Z,48.59
2022-09-26T08:52:02.778Z,48.00
2022-09-26T08:53:02.765Z,44.59
2022-09-26T08:55:02.745Z,40.00
2022-09-26T08:56:02.730Z,40.79
2022-09-26T08:57:02.713Z,41.90
2022-09-26T08:58:02.703Z,42.20
2022-09-26T08:59:02.688Z,40.20
2022-09-26T09:00:02.678Z,40.70
2022-09-26T09:01:02.956Z,40.59
2022-09-26T09:02:02.723Z,42.00
2022-09-26T09:03:02.806Z,39.59
2022-09-26T09:04:02.630Z,38.20
2022-09-26T09:06:02.610Z,40.59
2022-09-26T09:07:02.588Z,38.59
2022-09-26T09:08:02.576Z,37.79
2022-09-26T09:09:02.562Z,52.70
2022-09-26T09:10:02.550Z,49.59
2022-09-26T09:11:02.537Z,47.00
2022-09-26T09:12:02.529Z,45.29
2022-09-26T09:13:02.513Z,52.59
2022-09-26T09:14:02.504Z,41.40
2022-09-26T09:15:23.931Z,45.79
2022-09-26T09:17:02.511Z,49.40
2022-09-26T09:18:02.450Z,50.09
2022-09-26T09:19:02.438Z,51.79
2022-09-26T09:20:02.434Z,40.29
2022-09-26T09:21:02.409Z,39.40
2022-09-26T09:22:02.397Z,48.00
2022-09-26T09:23:02.385Z,39.90
2022-09-26T09:24:02.372Z,39.09
2022-09-26T09:25:02.357Z,48.50
2022-09-26T09:28:08.067Z,38.70
2022-09-26T09:29:02.306Z,35.20
2022-09-26T09:30:03.199Z,34.50
2022-09-26T09:31:02.450Z,40.00
2022-09-26T09:32:02.274Z,37.40
2022-09-26T09:33:02.283Z,36.29
2022-09-26T09:34:02.263Z,34.50
2022-09-26T09:35:02.227Z,31.70
2022-09-26T09:36:02.220Z,28.79
2022-09-26T09:37:02.201Z,37.70
2022-09-26T09:39:02.185Z,40.90
2022-09-26T09:40:02.163Z,44.50
2022-09-26T09:41:02.238Z,47.90
2022-09-26T09:42:02.139Z,44.90
2022-09-26T09:43:02.127Z,35.79
2022-09-26T09:44:02.114Z,38.40
2022-09-26T09:45:02.140Z,35.59
2022-09-26T09:46:02.135Z,39.40
2022-09-26T09:47:02.138Z,35.09
2022-09-26T09:48:02.063Z,34.79
2022-09-26T09:50:02.035Z,30.79
2022-09-26T09:51:02.020Z,33.20
2022-09-26T09:52:02.011Z,33.79
2022-09-26T09:53:01.995Z,39.29
2022-09-26T09:54:01.981Z,32.59
2022-09-26T09:55:01.966Z,34.20
2022-09-26T09:56:01.955Z,36.70
2022-09-26T09:57:01.942Z,34.59
2022-09-26T09:58:01.929Z,36.40
2022-09-26T09:59:01.915Z,35.79
2022-09-26T10:01:01.890Z,34.50
2022-09-26T10:02:01.879Z,33.40
2022-09-26T10:03:01.972Z,34.50
2022-09-26T10:04:01.849Z,35.90
2022-09-26T10:05:01.861Z,35.90
2022-09-26T10:06:01.830Z,35.29
2022-09-26T10:07:01.814Z,35.29
2022-09-26T10:08:01.797Z,39.09
2022-09-26T10:09:38.709Z,40.20
2022-09-26T10:10:03.768Z,42.29
2022-09-26T10:12:01.744Z,40.79
2022-09-26T10:13:01.732Z,39.29
2022-09-26T10:14:01.718Z,43.29
2022-09-26T10:15:01.706Z,38.79
2022-09-26T10:16:01.756Z,40.70
2022-09-26T10:17:01.677Z,39.00
2022-09-26T10:18:23.410Z,40.79
2022-09-26T10:19:03.918Z,40.40
2022-09-26T10:20:01.642Z,40.79
2022-09-26T10:21:01.654Z,41.90
2022-09-26T10:23:01.600Z,39.59
2022-09-26T10:24:01.590Z,41.09
2022-09-26T10:25:01.573Z,42.50
2022-09-26T10:26:01.562Z,42.79
2022-09-26T10:27:01.555Z,43.79
2022-09-26T10:28:01.541Z,45.79
2022-09-26T10:29:01.525Z,42.90
2022-09-26T10:30:01.511Z,41.59
2022-09-26T10:31:01.640Z,42.79
2022-09-26T10:32:01.483Z,41.40
2022-09-26T10:34:01.456Z,44.20
2022-09-26T10:35:01.443Z,41.59
2022-09-26T10:36:01.441Z,40.70
2022-09-26T10:37:01.438Z,39.90
2022-09-26T10:38:01.413Z,42.40
2022-09-26T10:39:01.387Z,40.90
2022-09-26T10:40:01.374Z,42.29
2022-09-26T10:41:01.521Z,42.09
2022-09-26T10:42:01.348Z,42.40
2022-09-26T10:43:01.334Z,42.59
2022-09-26T10:45:01.309Z,41.90
2022-09-26T10:46:01.340Z,39.90
2022-09-26T10:47:01.316Z,41.00
2022-09-26T10:48:01.271Z,37.00
2022-09-26T10:49:01.258Z,34.70
2022-09-26T10:50:01.246Z,32.79
2022-09-26T10:51:01.231Z,35.09
2022-09-26T10:52:01.594Z,33.59
2022-09-26T10:53:01.244Z,41.00
2022-09-26T10:54:01.192Z,45.50
2022-09-26T10:56:01.166Z,44.29
2022-09-26T10:57:01.152Z,35.09
2022-09-26T10:58:01.140Z,37.09
2022-09-26T10:59:01.126Z,39.70
2022-09-26T11:00:01.114Z,48.09
2022-09-26T11:01:01.151Z,51.29
2022-09-26T11:02:01.185Z,44.00
2022-09-26T11:03:01.072Z,34.50
2022-09-26T11:04:01.143Z,32.09
2022-09-26T11:05:01.045Z,33.29
2022-09-26T11:07:01.021Z,28.20
2022-09-26T11:08:01.007Z,30.20
2022-09-26T11:09:01.041Z,29.39
2022-09-26T11:10:00.983Z,29.60
2022-09-26T11:11:00.967Z,29.29
2022-09-26T11:12:00.956Z,31.50
2022-09-26T11:13:00.941Z,30.00
2022-09-26T11:14:00.930Z,27.60
2022-09-26T11:15:00.915Z,29.10
2022-09-26T11:16:00.971Z,30.29
2022-09-26T11:18:00.875Z,35.09
2022-09-26T11:19:00.861Z,38.00
2022-09-26T11:20:00.850Z,47.00
2022-09-26T11:21:00.835Z,48.40
2022-09-26T11:22:05.868Z,48.70
2022-09-26T11:23:02.808Z,46.70
2022-09-26T11:24:00.798Z,43.70
2022-09-26T11:25:00.933Z,40.09
2022-09-26T11:26:00.769Z,42.09
2022-09-26T11:27:00.755Z,39.79
2022-09-26T11:29:00.728Z,37.20
2022-09-26T11:30:00.716Z,37.59
2022-09-26T11:31:00.823Z,33.29
2022-09-26T11:32:00.689Z,32.09
2022-09-26T11:33:00.679Z,35.59
2022-09-26T11:34:00.663Z,39.09
2022-09-26T11:35:00.647Z,45.90
2022-09-26T11:36:00.635Z,47.50
2022-09-26T11:37:00.624Z,47.09
2022-09-26T11:38:00.610Z,46.40
2022-09-26T11:40:00.586Z,45.09
2022-09-26T11:41:00.687Z,45.40
2022-09-26T11:42:00.556Z,45.50
2022-09-26T11:43:00.542Z,45.29
2022-09-26T11:44:00.529Z,45.59
2022-09-26T11:46:00.556Z,41.50
2022-09-26T11:47:00.488Z,37.50
2022-09-26T11:48:00.476Z,41.20
2022-09-26T11:49:00.471Z,37.29
2022-09-26T11:51:00.436Z,37.20
2022-09-26T11:52:00.429Z,38.59
2022-09-26T11:53:00.409Z,41.09
2022-09-26T11:54:00.397Z,40.20
2022-09-26T11:55:00.382Z,37.20
2022-09-26T11:56:00.370Z,37.79
2022-09-26T11:57:00.377Z,36.09
2022-09-26T11:58:03.463Z,39.29
2022-09-26T11:59:00.329Z,42.50
2022-09-26T12:00:00.319Z,43.09
2022-09-26T12:02:00.300Z,48.29
2022-09-26T12:03:00.407Z,47.59
2022-09-26T12:04:00.598Z,54.29
2022-09-26T12:05:00.249Z,51.59
2022-09-26T12:06:00.238Z,53.59
2022-09-26T12:07:00.223Z,50.00
2022-09-26T12:08:00.212Z,48.20
2022-09-26T12:09:00.197Z,48.00
2022-09-26T12:10:00.184Z,47.70
2022-09-26T12:11:00.174Z,49.00
2022-09-26T12:13:00.169Z,50.70
2022-09-26T12:14:00.133Z,50.70
2022-09-26T12:15:00.123Z,50.20
2022-09-26T12:16:00.239Z,51.79
2022-09-26T12:17:00.092Z,51.00
2022-09-26T12:18:00.079Z,48.90
2022-09-26T12:19:00.063Z,44.79
2022-09-26T12:20:00.051Z,38.70
2022-09-26T12:21:00.037Z,36.50
2022-09-26T12:22:00.026Z,30.50
2022-09-26T12:24:00.000Z,24.89
2022-09-26T12:24:59.985Z,26.39
2022-09-26T12:25:59.971Z,28.10
2022-09-26T12:26:59.955Z,32.90
2022-09-26T12:27:59.945Z,28.89
2022-09-26T12:28:59.954Z,30.00
2022-09-26T12:29:59.914Z,27.79
2022-09-26T12:30:59.960Z,31.10
2022-09-26T12:31:59.887Z,32.00
2022-09-26T12:32:59.877Z,34.40
2022-09-26T12:34:59.851Z,35.59
2022-09-26T12:35:59.837Z,32.59
2022-09-26T12:36:59.824Z,33.09
2022-09-26T12:37:59.810Z,35.59
2022-09-26T12:38:59.795Z,36.79
2022-09-26T12:39:59.782Z,34.29
2022-09-26T12:40:59.928Z,32.09
2022-09-26T12:41:59.754Z,34.20
2022-09-26T12:42:59.741Z,33.70
2022-09-26T12:43:59.726Z,33.09
2022-09-26T12:45:59.787Z,27.79
2022-09-26T12:46:59.829Z,27.79
2022-09-26T12:47:59.673Z,26.20
2022-09-26T12:48:59.661Z,25.79
2022-09-26T12:49:59.646Z,24.89
2022-09-26T12:50:59.636Z,25.89
2022-09-26T12:51:59.621Z,27.60
2022-09-26T12:52:59.609Z,27.50
2022-09-26T12:53:59.594Z,30.60
2022-09-26T12:54:59.583Z,34.79
2022-09-26T12:56:59.556Z,35.09
2022-09-26T12:57:59.542Z,35.70
2022-09-26T12:58:59.532Z,36.59
2022-09-26T12:59:59.515Z,38.00
2022-09-26T13:00:59.528Z,39.90
2022-09-26T13:01:59.578Z,42.00
2022-09-26T13:02:59.577Z,39.90
2022-09-26T13:03:59.465Z,38.20
2022-09-26T13:04:59.450Z,32.40
2022-09-26T13:05:59.439Z,31.10
2022-09-26T13:07:59.409Z,27.70
2022-09-26T13:08:59.397Z,27.70
2022-09-26T13:09:59.384Z,28.60
2022-09-26T13:10:59.370Z,29.79
2022-09-26T13:11:59.357Z,29.00
2022-09-26T13:12:59.344Z,32.70
2022-09-26T13:13:59.329Z,36.29
2022-09-26T13:14:59.316Z,38.50
2022-09-26T13:15:59.425Z,41.29
2022-09-26T13:16:59.315Z,43.09
2022-09-26T13:18:59.265Z,40.09
2022-09-26T13:19:59.252Z,46.59
2022-09-26T13:20:59.237Z,45.40
2022-09-26T13:21:59.222Z,46.50
2022-09-26T13:22:59.210Z,47.00
2022-09-26T13:23:59.196Z,48.40
2022-09-26T13:24:59.183Z,49.50
2022-09-26T13:25:59.170Z,47.90
2022-09-26T13:26:59.158Z,48.20
2022-09-26T13:27:59.142Z,47.09
2022-09-26T13:29:59.115Z,49.40
2022-09-26T13:30:59.186Z,47.29
2022-09-26T13:31:59.089Z,48.40
2022-09-26T13:32:59.102Z,44.50
2022-09-26T13:33:59.062Z,45.29
2022-09-26T13:34:59.051Z,41.00
2022-09-26T13:35:59.052Z,41.79
2022-09-26T13:36:59.025Z,43.29
2022-09-26T13:38:02.109Z,43.09
2022-09-26T13:38:58.999Z,41.59
2022-09-26T13:40:59.032Z,37.59
2022-09-26T13:41:58.960Z,36.70
2022-09-26T13:43:02.823Z,34.00
2022-09-26T13:43:58.931Z,33.90
2022-09-26T13:44:58.921Z,32.40
2022-09-26T13:45:59.010Z,33.70
2022-09-26T13:46:58.895Z,34.79
2022-09-26T13:47:58.878Z,34.79
2022-09-26T13:48:58.897Z,35.70
2022-09-26T13:49:58.854Z,38.40
2022-09-26T13:51:58.846Z,42.29
2022-09-26T13:52:58.825Z,42.70
2022-09-26T13:53:58.801Z,45.00
2022-09-26T13:54:58.787Z,41.79
2022-09-26T13:55:58.774Z,38.59
2022-09-26T13:56:58.762Z,35.40
2022-09-26T13:57:58.751Z,32.00
2022-09-26T13:58:58.734Z,27.39
2022-09-26T13:59:58.721Z,25.60
2022-09-26T14:00:58.724Z,27.10
2022-09-26T14:03:03.827Z,24.10
2022-09-26T14:03:58.669Z,25.10
2022-09-26T14:04:58.680Z,25.60
2022-09-26T14:05:58.642Z,25.89
2022-09-26T14:06:58.629Z,26.10
2022-09-26T14:07:58.616Z,25.79
2022-09-26T14:08:58.603Z,26.10
2022-09-26T14:09:58.589Z,27.79
2022-09-26T14:10:58.577Z,23.50
2022-09-26T14:11:58.563Z,23.50
2022-09-26T14:13:58.536Z,24.50
2022-09-26T14:14:58.525Z,26.29
2022-09-26T14:15:58.593Z,25.70
2022-09-26T14:16:58.499Z,24.79
2022-09-26T14:17:58.485Z,25.50
2022-09-26T14:18:58.472Z,24.79
2022-09-26T14:19:58.466Z,24.50
2022-09-26T14:20:58.471Z,25.00
2022-09-26T14:21:58.433Z,24.50
2022-09-26T14:22:58.420Z,23.89